createdAt,value
2019-05-12T00:04:37.000Z,90.36
2019-05-12T00:09:23.000Z,90.25
2019-05-12T00:14:11.000Z,90.19
2019-05-12T00:18:59.000Z,90.17
2019-05-12T00:23:46.000Z,90.20
2019-05-12T00:28:33.000Z,90.04
2019-05-12T00:33:20.000Z,89.77
2019-05-12T00:38:08.000Z,89.56
2019-05-12T00:42:55.000Z,89.49
2019-05-12T00:47:44.000Z,89.35
2019-05-12T00:52:31.000Z,89.22
2019-05-12T00:57:18.000Z,88.88
2019-05-12T01:02:05.000Z,88.69
2019-05-12T01:06:52.000Z,88.57
2019-05-12T01:11:39.000Z,88.57
2019-05-12T01:16:26.000Z,88.37
2019-05-12T01:21:14.000Z,88.25
2019-05-12T01:26:01.000Z,88.12
2019-05-12T01:30:48.000Z,88.03
2019-05-12T01:35:36.000Z,87.89
2019-05-12T01:40:24.000Z,87.90
2019-05-12T01:45:11.000Z,87.90
2019-05-12T01:49:58.000Z,87.86
2019-05-12T01:54:46.000Z,87.75
2019-05-12T01:59:32.000Z,87.78
2019-05-12T02:04:20.000Z,87.73
2019-05-12T02:09:07.000Z,87.65
2019-05-12T02:13:55.000Z,87.60
2019-05-12T02:18:43.000Z,87.37
2019-05-12T02:23:30.000Z,87.26
2019-05-12T02:28:18.000Z,87.09
2019-05-12T02:33:05.000Z,86.97
2019-05-12T02:37:53.000Z,86.71
2019-05-12T02:42:40.000Z,86.67
2019-05-12T02:47:27.000Z,86.57
2019-05-12T02:52:14.000Z,86.55
2019-05-12T02:57:03.000Z,86.43
2019-05-12T03:01:49.000Z,86.26
2019-05-12T03:06:36.000Z,86.10
2019-05-12T03:11:23.000Z,86.05
2019-05-12T03:16:10.000Z,86.15
2019-05-12T03:20:58.000Z,85.97
2019-05-12T03:25:45.000Z,85.75
2019-05-12T03:30:33.000Z,85.71
2019-05-12T03:35:20.000Z,85.74
2019-05-12T03:40:08.000Z,85.69
2019-05-12T03:44:56.000Z,85.78
2019-05-12T03:49:44.000Z,85.69
2019-05-12T03:54:32.000Z,85.53
2019-05-12T03:59:21.000Z,85.38
2019-05-12T04:04:10.000Z,85.04
2019-05-12T04:08:58.000Z,84.83
2019-05-12T04:13:46.000Z,84.61
2019-05-12T04:18:34.000Z,84.29
2019-05-12T04:23:22.000Z,83.97
2019-05-12T04:28:10.000Z,83.86
2019-05-12T04:32:58.000Z,83.66
2019-05-12T04:37:47.000Z,83.39
2019-05-12T04:42:35.000Z,83.07
2019-05-12T04:47:23.000Z,82.87
2019-05-12T04:52:11.000Z,82.58
2019-05-12T04:57:00.000Z,82.42
2019-05-12T05:01:48.000Z,82.44
2019-05-12T05:06:36.000Z,82.38
2019-05-12T05:11:24.000Z,82.24
2019-05-12T05:16:12.000Z,82.14
2019-05-12T05:21:01.000Z,82.13
2019-05-12T05:25:49.000Z,82.22
2019-05-12T05:30:38.000Z,82.36
2019-05-12T05:35:24.000Z,82.21
2019-05-12T05:40:13.000Z,82.12
2019-05-12T05:45:02.000Z,81.99
2019-05-12T05:49:49.000Z,81.35
2019-05-12T05:54:36.000Z,80.95
2019-05-12T05:59:24.000Z,80.55
2019-05-12T06:04:12.000Z,80.08
2019-05-12T06:09:00.000Z,79.91
2019-05-12T06:13:48.000Z,79.46
2019-05-12T06:18:36.000Z,79.31
2019-05-12T06:23:24.000Z,79.14
2019-05-12T06:28:13.000Z,78.32
2019-05-12T06:33:02.000Z,78.36
2019-05-12T06:37:50.000Z,78.20
2019-05-12T06:42:39.000Z,77.99
2019-05-12T06:47:28.000Z,76.14
2019-05-12T06:52:16.000Z,74.50
2019-05-12T06:57:04.000Z,73.72
2019-05-12T07:01:53.000Z,72.30
2019-05-12T07:06:41.000Z,72.39
2019-05-12T07:11:29.000Z,71.96
2019-05-12T07:16:17.000Z,72.68
2019-05-12T07:21:05.000Z,72.36
2019-05-12T07:25:53.000Z,72.43
2019-05-12T07:30:41.000Z,72.71
2019-05-12T07:35:29.000Z,73.31
2019-05-12T07:40:17.000Z,73.30
2019-05-12T07:45:06.000Z,73.34
2019-05-12T07:49:55.000Z,73.46
2019-05-12T07:54:41.000Z,73.34
2019-05-12T07:59:29.000Z,73.10
2019-05-12T08:04:18.000Z,73.25
2019-05-12T08:09:06.000Z,73.30
2019-05-12T08:13:54.000Z,73.27
2019-05-12T08:18:42.000Z,73.07
2019-05-12T08:23:30.000Z,73.20
2019-05-12T08:28:19.000Z,73.05
2019-05-12T08:33:07.000Z,71.67
2019-05-12T08:37:56.000Z,70.89
2019-05-12T08:42:44.000Z,70.36
2019-05-12T08:47:32.000Z,69.49
2019-05-12T08:52:21.000Z,69.53
2019-05-12T08:57:11.000Z,69.27
2019-05-12T09:01:57.000Z,68.71
2019-05-12T09:06:46.000Z,67.27
2019-05-12T09:11:34.000Z,67.52
2019-05-12T09:16:22.000Z,66.23
2019-05-12T09:21:11.000Z,66.04
2019-05-12T09:25:59.000Z,65.54
2019-05-12T09:30:48.000Z,64.21
2019-05-12T09:35:37.000Z,63.39
2019-05-12T09:40:26.000Z,62.10
2019-05-12T09:45:15.000Z,61.16
2019-05-12T09:50:04.000Z,58.87
2019-05-12T09:54:52.000Z,58.41
2019-05-12T09:59:41.000Z,57.99
2019-05-12T10:04:29.000Z,57.87
2019-05-12T10:09:17.000Z,58.19
2019-05-12T10:14:05.000Z,59.27
2019-05-12T10:18:53.000Z,60.08
2019-05-12T10:23:41.000Z,60.63
2019-05-12T10:28:29.000Z,61.28
2019-05-12T10:33:18.000Z,61.80
2019-05-12T10:38:06.000Z,61.38
2019-05-12T10:42:56.000Z,62.14
2019-05-12T10:47:44.000Z,60.34
2019-05-12T10:52:33.000Z,58.92
2019-05-12T10:57:22.000Z,59.27
2019-05-12T11:02:14.000Z,55.05
2019-05-12T11:07:02.000Z,49.78
2019-05-12T11:11:48.000Z,49.50
2019-05-12T11:16:35.000Z,51.89
2019-05-12T11:21:23.000Z,53.76
2019-05-12T11:26:12.000Z,54.30
2019-05-12T11:31:03.000Z,50.13
2019-05-12T11:35:53.000Z,47.24
2019-05-12T11:40:42.000Z,43.53
2019-05-12T11:45:29.000Z,44.06
2019-05-12T11:50:15.000Z,46.95
2019-05-12T11:55:03.000Z,49.66
2019-05-12T11:59:51.000Z,51.57
2019-05-12T12:04:36.000Z,52.53
2019-05-12T12:09:24.000Z,53.01
2019-05-12T12:14:14.000Z,53.14
2019-05-12T12:19:05.000Z,50.44
2019-05-12T12:23:53.000Z,46.26
2019-05-12T12:28:42.000Z,44.41
2019-05-12T12:33:27.000Z,45.02
2019-05-12T12:38:14.000Z,46.05
2019-05-12T12:43:05.000Z,45.56
2019-05-12T12:47:52.000Z,44.49
2019-05-12T12:52:40.000Z,44.39
2019-05-12T12:57:28.000Z,45.07
2019-05-12T13:02:17.000Z,42.89
2019-05-12T13:07:06.000Z,42.46
2019-05-12T13:11:55.000Z,42.00
2019-05-12T13:16:44.000Z,40.96
2019-05-12T13:21:32.000Z,41.34
2019-05-12T13:26:19.000Z,41.29
2019-05-12T13:31:06.000Z,42.54
2019-05-12T13:35:54.000Z,44.20
2019-05-12T13:40:42.000Z,45.33
2019-05-12T13:45:32.000Z,45.46
2019-05-12T13:50:19.000Z,45.32
2019-05-12T13:55:08.000Z,45.75
2019-05-12T13:59:54.000Z,46.49
2019-05-12T14:04:42.000Z,46.87
2019-05-12T14:09:31.000Z,48.29
2019-05-12T14:14:19.000Z,47.95
2019-05-12T14:19:09.000Z,46.79
2019-05-12T14:23:55.000Z,46.20
2019-05-12T14:28:44.000Z,46.37
2019-05-12T14:33:32.000Z,46.24
2019-05-12T14:38:22.000Z,43.73
2019-05-12T14:43:09.000Z,42.31
2019-05-12T14:47:57.000Z,41.77
2019-05-12T14:52:45.000Z,42.86
2019-05-12T14:57:34.000Z,42.23
2019-05-12T15:02:22.000Z,41.06
2019-05-12T15:07:10.000Z,41.53
2019-05-12T15:11:59.000Z,42.02
2019-05-12T15:16:47.000Z,41.52
2019-05-12T15:21:35.000Z,40.96
2019-05-12T15:26:24.000Z,41.37
2019-05-12T15:31:12.000Z,42.26
2019-05-12T15:35:59.000Z,43.17
2019-05-12T15:40:45.000Z,44.04
2019-05-12T15:45:33.000Z,44.00
2019-05-12T15:50:21.000Z,44.34
2019-05-12T15:55:09.000Z,45.35
2019-05-12T15:59:57.000Z,45.22
2019-05-12T16:04:45.000Z,45.55
2019-05-12T16:09:34.000Z,45.21
2019-05-12T16:14:21.000Z,45.52
2019-05-12T16:19:10.000Z,45.74
2019-05-12T16:23:58.000Z,46.24
2019-05-12T16:28:47.000Z,45.82
2019-05-12T16:33:33.000Z,45.88
2019-05-12T16:38:21.000Z,46.62
2019-05-12T16:43:09.000Z,46.93
2019-05-12T16:47:57.000Z,47.74
2019-05-12T16:52:45.000Z,48.56
2019-05-12T16:57:33.000Z,49.09
2019-05-12T17:02:21.000Z,49.39
2019-05-12T17:07:10.000Z,49.55
2019-05-12T17:11:58.000Z,49.80
2019-05-12T17:16:46.000Z,50.28
2019-05-12T17:21:34.000Z,50.68
2019-05-12T17:26:22.000Z,51.26
2019-05-12T17:31:10.000Z,51.52
2019-05-12T17:35:58.000Z,51.82
2019-05-12T17:40:47.000Z,52.26
2019-05-12T17:45:33.000Z,52.81
2019-05-12T17:50:22.000Z,53.37
2019-05-12T17:55:10.000Z,53.63
2019-05-12T17:59:59.000Z,54.30
2019-05-12T18:04:46.000Z,54.45
2019-05-12T18:09:34.000Z,54.85
2019-05-12T18:14:22.000Z,55.12
2019-05-12T18:19:10.000Z,55.75
2019-05-12T18:23:58.000Z,56.07
2019-05-12T18:28:46.000Z,56.71
2019-05-12T18:33:35.000Z,56.93
2019-05-12T18:38:23.000Z,57.04
2019-05-12T18:43:10.000Z,57.55
2019-05-12T18:47:58.000Z,57.93
2019-05-12T18:52:45.000Z,57.69
2019-05-12T18:57:33.000Z,57.79
2019-05-12T19:02:21.000Z,57.94
2019-05-12T19:07:09.000Z,58.10
2019-05-12T19:11:57.000Z,58.54
2019-05-12T19:16:43.000Z,58.30
2019-05-12T19:21:31.000Z,58.06
2019-05-12T19:26:18.000Z,59.02
2019-05-12T19:31:06.000Z,60.58
2019-05-12T19:35:53.000Z,61.72
2019-05-12T19:40:41.000Z,61.53
2019-05-12T19:45:27.000Z,62.50
2019-05-12T19:50:16.000Z,63.22
2019-05-12T19:55:03.000Z,63.70
2019-05-12T19:59:50.000Z,64.15
2019-05-12T20:04:37.000Z,64.00
2019-05-12T20:09:24.000Z,64.88
2019-05-12T20:14:11.000Z,66.17
2019-05-12T20:18:58.000Z,66.68
2019-05-12T20:23:46.000Z,66.84
2019-05-12T20:28:33.000Z,66.78
2019-05-12T20:33:20.000Z,67.57
2019-05-12T20:38:08.000Z,66.96
2019-05-12T20:42:55.000Z,68.21
2019-05-12T20:47:42.000Z,69.01
2019-05-12T20:52:29.000Z,69.41
2019-05-12T20:57:16.000Z,70.84
2019-05-12T21:02:04.000Z,71.76
2019-05-12T21:06:52.000Z,72.29
2019-05-12T21:11:39.000Z,72.30
2019-05-12T21:16:26.000Z,72.49
2019-05-12T21:21:14.000Z,73.75
2019-05-12T21:26:02.000Z,74.04
2019-05-12T21:35:37.000Z,75.83
2019-05-12T21:40:23.000Z,76.22
2019-05-12T21:45:10.000Z,76.51
2019-05-12T21:49:57.000Z,76.27
2019-05-12T21:54:45.000Z,76.00
2019-05-12T21:59:32.000Z,76.60
2019-05-12T22:04:19.000Z,76.95
2019-05-12T22:09:07.000Z,76.69
2019-05-12T22:13:54.000Z,77.21
2019-05-12T22:18:41.000Z,77.51
2019-05-12T22:23:28.000Z,77.41
2019-05-12T22:28:15.000Z,77.43
2019-05-12T22:33:02.000Z,77.21
2019-05-12T22:37:50.000Z,77.93
2019-05-12T22:42:37.000Z,78.38
2019-05-12T22:47:25.000Z,78.07
2019-05-12T22:52:12.000Z,78.31
2019-05-12T22:56:59.000Z,78.50
2019-05-12T23:01:47.000Z,78.29
2019-05-12T23:06:33.000Z,78.47
2019-05-12T23:11:21.000Z,77.99
2019-05-12T23:16:08.000Z,78.98
2019-05-12T23:20:55.000Z,79.01
2019-05-12T23:25:43.000Z,79.65
2019-05-12T23:30:30.000Z,80.00
2019-05-12T23:35:17.000Z,80.15
2019-05-12T23:40:05.000Z,80.78
2019-05-12T23:44:52.000Z,81.30
2019-05-12T23:49:39.000Z,81.88
2019-05-12T23:54:28.000Z,82.30
2019-05-12T23:59:14.000Z,82.81
